Time;durP1;ratioP1;P1;durP2;ratioP2;P2;SDS_P1;SDS_P2;PMS_P1;PMS_P2;Temp;Humidity;BMP_temperature;BMP_pressure;BME280_temperature;BME280_humidity;BME280_pressure;Samples;Min_cycle;Max_cycle;Signal;HPM_P1;HPM_P2
2024/04/02 00:00:46;;;;;;;;;;;19.80;42.90;;;;;;8356887;28;19909;-56
2024/04/02 00:04:47;;;;;;;;;;;19.70;42.90;;;;;;8358344;28;20378;-56
2024/04/02 00:08:47;;;;;;;;;;;19.70;42.70;;;;;;8358750;28;20313;-56
2024/04/02 00:12:48;;;;;;;;;;;19.70;42.70;;;;;;8339142;28;19997;-56
2024/04/02 00:16:48;;;;;;;;;;;19.70;42.70;;;;;;8358821;28;19920;-56
2024/04/02 00:20:49;;;;;;;;;;;19.70;42.70;;;;;;8358515;28;19924;-56
2024/04/02 00:24:50;;;;;;;;;;;19.70;42.70;;;;;;8359052;27;20358;-55
2024/04/02 00:28:50;;;;;;;;;;;19.70;42.70;;;;;;8357266;27;19925;-54
2024/04/02 00:32:51;;;;;;;;;;;19.70;42.70;;;;;;8356577;28;19920;-56
2024/04/02 00:36:52;;;;;;;;;;;19.70;42.80;;;;;;8358082;28;19955;-57
2024/04/02 00:40:52;;;;;;;;;;;19.70;42.80;;;;;;8358106;28;19938;-58
2024/04/02 00:44:53;;;;;;;;;;;19.60;42.80;;;;;;8357827;27;19920;-58
2024/04/02 00:48:54;;;;;;;;;;;19.70;42.70;;;;;;8357951;28;19913;-58
2024/04/02 00:52:55;;;;;;;;;;;19.80;42.70;;;;;;8357922;28;19913;-59
2024/04/02 00:56:55;;;;;;;;;;;19.80;43.00;;;;;;8357790;28;19909;-57
2024/04/02 01:00:57;;;;;;;;;;;19.80;42.80;;;;;;8357349;28;19909;-53
2024/04/02 01:04:58;;;;;;;;;;;19.70;42.90;;;;;;8339469;28;19997;-59
2024/04/02 01:08:59;;;;;;;;;;;19.70;42.90;;;;;;8357482;28;20015;-58
2024/04/02 01:13:00;;;;;;;;;;;19.70;43.10;;;;;;8357145;27;19917;-57
2024/04/02 01:17:00;;;;;;;;;;;19.70;42.90;;;;;;8357562;28;19962;-57
2024/04/02 01:21:01;;;;;;;;;;;19.70;43.20;;;;;;8356977;28;19936;-57
2024/04/02 01:25:01;;;;;;;;;;;19.80;43.10;;;;;;8357245;27;19913;-59
2024/04/02 01:29:03;;;;;;;;;;;19.80;43.00;;;;;;8327527;28;19913;-50
2024/04/02 01:33:04;;;;;;;;;;;19.80;42.90;;;;;;8324342;28;19997;-58
2024/04/02 01:37:04;;;;;;;;;;;19.90;42.80;;;;;;8324089;28;19914;-58
2024/04/02 01:41:05;;;;;;;;;;;20.00;42.70;;;;;;8302576;28;20181;-58
2024/04/02 01:45:05;;;;;;;;;;;20.10;41.70;;;;;;8471472;28;20022;-52
2024/04/02 01:49:06;;;;;;;;;;;20.10;41.60;;;;;;8484966;27;19915;-56
2024/04/02 01:53:07;;;;;;;;;;;20.00;41.30;;;;;;8491959;28;20002;-56
2024/04/02 01:57:07;;;;;;;;;;;20.10;41.10;;;;;;8493515;28;19916;-57
2024/04/02 02:01:08;;;;;;;;;;;20.10;40.90;;;;;;8475363;28;19916;-56
2024/04/02 02:05:08;;;;;;;;;;;20.10;40.80;;;;;;8493716;28;19911;-56
2024/04/02 02:09:09;;;;;;;;;;;20.10;40.70;;;;;;8493575;28;20356;-56
2024/04/02 02:13:10;;;;;;;;;;;19.90;41.60;;;;;;8442429;28;19919;-57
2024/04/02 02:17:10;;;;;;;;;;;19.70;42.30;;;;;;8332847;28;20332;-55
2024/04/02 02:21:11;;;;;;;;;;;19.70;41.80;;;;;;8358869;27;19925;-56
2024/04/02 02:25:12;;;;;;;;;;;19.80;41.40;;;;;;8359586;28;19912;-57
2024/04/02 02:29:13;;;;;;;;;;;19.90;41.10;;;;;;8359665;28;19959;-55
2024/04/02 02:33:14;;;;;;;;;;;19.80;40.90;;;;;;8359814;28;19971;-56
2024/04/02 02:37:14;;;;;;;;;;;19.90;40.70;;;;;;8359388;28;19908;-56
2024/04/02 02:41:15;;;;;;;;;;;19.90;40.60;;;;;;8360264;28;20436;-56
2024/04/02 02:45:15;;;;;;;;;;;19.90;40.40;;;;;;8361202;27;19920;-55
2024/04/02 02:49:16;;;;;;;;;;;19.90;40.40;;;;;;8358964;28;20381;-56
2024/04/02 02:53:16;;;;;;;;;;;19.80;40.30;;;;;;8359136;28;19920;-55
2024/04/02 02:57:17;;;;;;;;;;;19.90;40.20;;;;;;8358800;28;20003;-56
2024/04/02 03:01:18;;;;;;;;;;;19.70;41.50;;;;;;8358640;28;20384;-55
2024/04/02 03:05:18;;;;;;;;;;;19.60;42.20;;;;;;8359352;28;19909;-55
2024/04/02 03:09:19;;;;;;;;;;;19.60;41.60;;;;;;8358513;28;20012;-56
2024/04/02 03:13:20;;;;;;;;;;;19.70;41.20;;;;;;8358229;28;20255;-55
2024/04/02 03:17:21;;;;;;;;;;;19.70;40.90;;;;;;8358253;28;19921;-55
2024/04/02 03:21:21;;;;;;;;;;;19.80;40.70;;;;;;8358152;28;19913;-56
2024/04/02 03:25:22;;;;;;;;;;;19.80;40.50;;;;;;8358593;28;19920;-55
2024/04/02 03:29:23;;;;;;;;;;;19.80;40.40;;;;;;8357728;28;19917;-55
2024/04/02 03:33:24;;;;;;;;;;;19.80;40.40;;;;;;8358137;28;19924;-56
2024/04/02 03:37:24;;;;;;;;;;;19.80;40.20;;;;;;8357625;28;19952;-55
2024/04/02 03:41:25;;;;;;;;;;;19.80;40.10;;;;;;8357570;28;19923;-55
2024/04/02 03:45:26;;;;;;;;;;;19.80;40.10;;;;;;8357515;28;19916;-55
2024/04/02 03:49:26;;;;;;;;;;;19.60;41.50;;;;;;8357524;28;19941;-55
2024/04/02 03:53:27;;;;;;;;;;;19.40;42.10;;;;;;8357251;28;19966;-55
2024/04/02 03:57:28;;;;;;;;;;;19.50;41.50;;;;;;8357793;28;19924;-56
2024/04/02 04:01:28;;;;;;;;;;;19.60;41.00;;;;;;8357064;28;19971;-55
2024/04/02 04:05:29;;;;;;;;;;;19.70;40.70;;;;;;8357476;28;19913;-54
2024/04/02 04:09:29;;;;;;;;;;;19.70;40.50;;;;;;8356926;28;20293;-55
2024/04/02 04:13:30;;;;;;;;;;;19.70;40.30;;;;;;8356855;27;19909;-55
2024/04/02 04:17:30;;;;;;;;;;;19.70;40.20;;;;;;8356541;27;20322;-56
2024/04/02 04:21:31;;;;;;;;;;;19.80;40.10;;;;;;8356855;28;19957;-56
2024/04/02 04:25:32;;;;;;;;;;;19.80;40.00;;;;;;8356376;28;19936;-53
2024/04/02 04:29:33;;;;;;;;;;;19.80;39.80;;;;;;8356600;28;19921;-52
2024/04/02 04:33:33;;;;;;;;;;;19.90;39.70;;;;;;8356376;28;19924;-51
2024/04/02 04:37:34;;;;;;;;;;;19.80;41.00;;;;;;8355694;28;19913;-53
2024/04/02 04:41:35;;;;;;;;;;;19.70;41.30;;;;;;8338744;27;19919;-53
2024/04/02 04:45:35;;;;;;;;;;;19.80;40.60;;;;;;8355973;28;19909;-52
2024/04/02 04:49:36;;;;;;;;;;;19.80;40.20;;;;;;8355865;28;19917;-53
2024/04/02 04:53:37;;;;;;;;;;;19.80;39.90;;;;;;8355875;28;20377;-52
2024/04/02 04:57:38;;;;;;;;;;;19.90;39.70;;;;;;8355908;28;19924;-53
2024/04/02 05:01:39;;;;;;;;;;;19.90;39.60;;;;;;8356044;28;19919;-53
2024/04/02 05:05:39;;;;;;;;;;;19.90;39.50;;;;;;8355705;28;19919;-52
2024/04/02 05:09:40;;;;;;;;;;;19.90;39.40;;;;;;8355373;28;20377;-53
2024/04/02 05:13:40;;;;;;;;;;;19.90;39.40;;;;;;8321169;28;20346;-53
2024/04/02 05:17:41;;;;;;;;;;;19.90;39.40;;;;;;8322206;28;19921;-52
2024/04/02 05:21:41;;;;;;;;;;;19.90;39.60;;;;;;8322746;28;19978;-52
2024/04/02 05:25:42;;;;;;;;;;;19.70;40.90;;;;;;8304668;28;19920;-52
2024/04/02 05:29:46;;;;;;;;;;;19.60;41.30;;;;;;8322088;28;19961;-51
2024/04/02 05:33:46;;;;;;;;;;;19.60;40.60;;;;;;8322390;28;19914;-54
2024/04/02 05:37:51;;;;;;;;;;;19.70;40.10;;;;;;8322003;28;19916;-55
2024/04/02 05:41:52;;;;;;;;;;;19.80;39.90;;;;;;8326308;27;19909;-55
2024/04/02 05:45:52;;;;;;;;;;;19.80;39.60;;;;;;8355003;28;19962;-55
2024/04/02 05:49:53;;;;;;;;;;;19.80;39.50;;;;;;8355306;28;20374;-55
2024/04/02 05:53:54;;;;;;;;;;;19.80;39.30;;;;;;8360719;28;20012;-56
2024/04/02 05:57:56;;;;;;;;;;;19.90;39.30;;;;;;8360803;28;19919;-55
2024/04/02 06:01:57;;;;;;;;;;;19.80;39.20;;;;;;8360498;28;19913;-55
2024/04/02 06:05:58;;;;;;;;;;;19.90;39.10;;;;;;8360679;28;19916;-55
2024/04/02 06:09:59;;;;;;;;;;;19.90;39.40;;;;;;8360070;28;19917;-54
2024/04/02 06:13:59;;;;;;;;;;;19.70;40.70;;;;;;8325991;28;19920;-54
2024/04/02 06:18:00;;;;;;;;;;;19.60;40.80;;;;;;8326808;28;20020;-55
2024/04/02 06:22:00;;;;;;;;;;;19.80;40.20;;;;;;8326936;28;20282;-56
2024/04/02 06:26:01;;;;;;;;;;;19.80;39.70;;;;;;8326655;28;20418;-55
2024/04/02 06:30:02;;;;;;;;;;;19.80;39.50;;;;;;8326686;28;19920;-56
2024/04/02 06:34:02;;;;;;;;;;;19.80;39.30;;;;;;8326514;28;19917;-56
2024/04/02 06:38:03;;;;;;;;;;;19.90;39.20;;;;;;8308665;28;20399;-56
2024/04/02 06:42:04;;;;;;;;;;;19.90;39.10;;;;;;8334372;27;19916;-55
2024/04/02 06:46:04;;;;;;;;;;;19.90;39.00;;;;;;8359290;28;20158;-53
2024/04/02 06:50:05;;;;;;;;;;;19.90;38.90;;;;;;8359055;28;20239;-52
2024/04/02 06:54:06;;;;;;;;;;;19.90;38.80;;;;;;8359191;28;19909;-54
2024/04/02 06:58:06;;;;;;;;;;;19.80;39.40;;;;;;8358774;28;20026;-52
2024/04/02 07:02:07;;;;;;;;;;;19.80;40.40;;;;;;8358367;28;19919;-53
2024/04/02 07:06:08;;;;;;;;;;;19.70;40.40;;;;;;8358865;28;20437;-52
2024/04/02 07:10:08;;;;;;;;;;;19.70;39.90;;;;;;8358786;28;20012;-51
2024/04/02 07:14:09;;;;;;;;;;;19.80;39.60;;;;;;8309948;28;19993;-52
2024/04/02 07:18:09;;;;;;;;;;;19.80;39.30;;;;;;8325841;28;19925;-53
2024/04/02 07:22:10;;;;;;;;;;;19.90;39.20;;;;;;8325568;28;20351;-52
2024/04/02 07:26:10;;;;;;;;;;;19.80;39.00;;;;;;8325886;28;19909;-54
2024/04/02 07:30:12;;;;;;;;;;;19.90;39.00;;;;;;8325109;28;20422;-53
2024/04/02 07:34:12;;;;;;;;;;;19.90;38.90;;;;;;8325104;28;19920;-53
2024/04/02 07:38:13;;;;;;;;;;;19.90;38.70;;;;;;8324900;28;19913;-53
2024/04/02 07:42:14;;;;;;;;;;;19.90;38.70;;;;;;8363657;27;20436;-53
2024/04/02 07:46:15;;;;;;;;;;;19.90;39.30;;;;;;8497064;27;20544;-52
2024/04/02 07:50:15;;;;;;;;;;;19.70;40.20;;;;;;8496680;27;19922;-53
2024/04/02 07:54:16;;;;;;;;;;;19.70;40.20;;;;;;8496856;27;20565;-56
2024/04/02 07:58:16;;;;;;;;;;;19.80;39.70;;;;;;8496700;27;19908;-54
2024/04/02 08:02:17;;;;;;;;;;;19.90;39.30;;;;;;8496623;27;20265;-55
2024/04/02 08:06:17;;;;;;;;;;;19.80;39.10;;;;;;8495182;27;19911;-55
2024/04/02 08:10:18;;;;;;;;;;;19.90;39.00;;;;;;8496236;27;19919;-55
2024/04/02 08:14:23;;;;;;;;;;;19.90;38.90;;;;;;8368746;27;19917;-55
2024/04/02 08:18:24;;;;;;;;;;;19.90;38.70;;;;;;8332655;27;19979;-55
2024/04/02 08:22:24;;;;;;;;;;;19.90;38.70;;;;;;8356560;28;19913;-55
2024/04/02 08:26:27;;;;;;;;;;;19.90;38.60;;;;;;8356966;28;19985;-55
2024/04/02 08:30:28;;;;;;;;;;;19.90;38.60;;;;;;8356615;28;20267;-56
2024/04/02 08:34:28;;;;;;;;;;;19.80;39.40;;;;;;8356442;28;20221;-56
2024/04/02 08:38:29;;;;;;;;;;;19.80;40.10;;;;;;8356424;28;20320;-55
2024/04/02 08:42:30;;;;;;;;;;;19.70;40.00;;;;;;8356694;27;19966;-54
2024/04/02 08:46:32;;;;;;;;;;;19.70;39.60;;;;;;8356120;28;20362;-55
2024/04/02 08:50:32;;;;;;;;;;;19.80;39.30;;;;;;8356058;28;19968;-56
2024/04/02 08:54:33;;;;;;;;;;;19.80;39.00;;;;;;8356042;28;19913;-56
2024/04/02 08:58:34;;;;;;;;;;;19.90;39.00;;;;;;8355878;28;20003;-56
2024/04/02 09:02:35;;;;;;;;;;;19.90;38.80;;;;;;8356237;28;19920;-55
2024/04/02 09:06:35;;;;;;;;;;;19.90;38.70;;;;;;8355738;28;19913;-56
2024/04/02 09:10:36;;;;;;;;;;;19.90;38.60;;;;;;8355466;28;19913;-55
2024/04/02 09:14:38;;;;;;;;;;;19.90;38.50;;;;;;8355472;27;20357;-56
2024/04/02 09:18:45;;;;;;;;;;;19.90;38.30;;;;;;8355704;27;19971;-55
2024/04/02 09:22:47;;;;;;;;;;;19.90;39.30;;;;;;8338380;28;19913;-55
2024/04/02 09:26:48;;;;;;;;;;;19.80;40.00;;;;;;8360569;28;20311;-55
2024/04/02 09:30:49;;;;;;;;;;;19.80;39.70;;;;;;8361073;28;20289;-56
2024/04/02 09:34:52;;;;;;;;;;;19.80;39.30;;;;;;8343587;28;20016;-55
2024/04/02 09:38:54;;;;;;;;;;;19.80;39.10;;;;;;8360998;28;19909;-55
2024/04/02 09:42:56;;;;;;;;;;;19.80;38.80;;;;;;8360683;28;19908;-55
2024/04/02 09:46:57;;;;;;;;;;;19.90;38.80;;;;;;8360871;28;19928;-55
2024/04/02 09:50:57;;;;;;;;;;;19.80;38.60;;;;;;8360613;28;20390;-55
2024/04/02 09:55:00;;;;;;;;;;;19.90;38.60;;;;;;8360446;28;20301;-56
2024/04/02 09:59:01;;;;;;;;;;;19.90;38.50;;;;;;8360657;28;19909;-55
2024/04/02 10:03:03;;;;;;;;;;;19.90;38.40;;;;;;8360267;28;20356;-56
2024/04/02 10:07:04;;;;;;;;;;;19.90;38.30;;;;;;8360338;28;19913;-55
2024/04/02 10:11:06;;;;;;;;;;;19.80;39.30;;;;;;8360077;28;19923;-55
2024/04/02 10:15:11;;;;;;;;;;;19.70;40.70;;;;;;8360085;28;19964;-55
2024/04/02 10:19:12;;;;;;;;;;;19.70;39.80;;;;;;8359995;27;20000;-55
2024/04/02 10:23:15;;;;;;;;;;;19.70;39.30;;;;;;8359952;28;19916;-55
2024/04/02 10:27:16;;;;;;;;;;;19.80;39.10;;;;;;8359672;28;19916;-54
2024/04/02 10:31:17;;;;;;;;;;;19.80;38.80;;;;;;8359640;28;19917;-54
2024/04/02 10:35:18;;;;;;;;;;;19.80;38.70;;;;;;8358882;28;19913;-55
2024/04/02 10:39:19;;;;;;;;;;;19.80;38.50;;;;;;8359312;28;19944;-55
2024/04/02 10:43:19;;;;;;;;;;;19.80;38.40;;;;;;8359674;27;19913;-55
2024/04/02 10:47:20;;;;;;;;;;;19.90;38.40;;;;;;8359374;28;19958;-54
2024/04/02 10:51:20;;;;;;;;;;;19.90;38.30;;;;;;8359122;28;19917;-54
2024/04/02 10:55:21;;;;;;;;;;;19.90;38.20;;;;;;8358932;28;19913;-55
2024/04/02 10:59:22;;;;;;;;;;;19.80;39.40;;;;;;8359152;28;20357;-55
2024/04/02 11:03:22;;;;;;;;;;;19.60;40.10;;;;;;8358734;28;19913;-55
2024/04/02 11:07:25;;;;;;;;;;;19.70;39.70;;;;;;8358545;28;20070;-54
2024/04/02 11:11:26;;;;;;;;;;;19.70;39.20;;;;;;8358805;28;19913;-54
2024/04/02 11:15:27;;;;;;;;;;;19.80;38.90;;;;;;8358663;28;19920;-55
2024/04/02 11:19:27;;;;;;;;;;;19.80;38.70;;;;;;8358637;28;19925;-54
2024/04/02 11:27:47;;;;;;;;;;;19.80;38.40;;;;;;8358717;28;19952;-54
2024/04/02 11:31:48;;;;;;;;;;;19.90;38.40;;;;;;8357952;28;19917;-53
2024/04/02 11:35:48;;;;;;;;;;;19.80;38.30;;;;;;8358417;28;20326;-52
2024/04/02 11:39:49;;;;;;;;;;;19.80;38.20;;;;;;8358032;28;19917;-53
2024/04/02 11:43:50;;;;;;;;;;;19.80;38.20;;;;;;8357314;27;19916;-53
2024/04/02 11:47:52;;;;;;;;;;;19.70;39.60;;;;;;8357602;28;19915;-53
2024/04/02 11:51:52;;;;;;;;;;;19.60;40.10;;;;;;8357700;28;19917;-52
2024/04/02 11:55:53;;;;;;;;;;;19.60;39.50;;;;;;8339970;28;19913;-53
2024/04/02 12:00:11;;;;;;;;;;;19.70;39.10;;;;;;8357551;28;20022;-53
2024/04/02 12:04:12;;;;;;;;;;;19.70;38.80;;;;;;8357181;28;20049;-53
2024/04/02 12:08:12;;;;;;;;;;;19.80;38.60;;;;;;8357016;28;19913;-52
2024/04/02 12:12:13;;;;;;;;;;;19.80;38.50;;;;;;8339222;28;19917;-54
2024/04/02 12:16:14;;;;;;;;;;;19.80;38.30;;;;;;8339212;28;19919;-53
2024/04/02 12:20:14;;;;;;;;;;;19.80;38.30;;;;;;8339238;28;19925;-53
2024/04/02 12:24:15;;;;;;;;;;;19.80;38.20;;;;;;8356766;28;20027;-52
2024/04/02 12:28:15;;;;;;;;;;;19.90;38.10;;;;;;8356647;28;19913;-53
2024/04/02 12:32:16;;;;;;;;;;;19.80;38.40;;;;;;8356465;28;19923;-53
2024/04/02 12:36:17;;;;;;;;;;;19.70;39.60;;;;;;8356865;28;19917;-55
2024/04/02 12:40:18;;;;;;;;;;;19.60;40.00;;;;;;8356265;28;19920;-56
2024/04/02 12:44:18;;;;;;;;;;;19.60;39.40;;;;;;8356269;27;20789;-56
2024/04/02 12:48:19;;;;;;;;;;;19.70;39.00;;;;;;8338649;28;19917;-56
2024/04/02 12:52:19;;;;;;;;;;;19.80;38.80;;;;;;8356310;28;19944;-54
2024/04/02 12:56:20;;;;;;;;;;;19.80;38.60;;;;;;8355891;28;20285;-55
2024/04/02 13:00:20;;;;;;;;;;;19.80;38.40;;;;;;8356201;28;20385;-53
2024/04/02 13:04:22;;;;;;;;;;;19.80;38.40;;;;;;8355861;28;19913;-55
2024/04/02 13:08:22;;;;;;;;;;;19.80;38.20;;;;;;8355575;28;20335;-56
2024/04/02 13:12:23;;;;;;;;;;;19.80;38.20;;;;;;8355538;28;19969;-56
2024/04/02 13:16:30;;;;;;;;;;;19.80;38.10;;;;;;8355664;28;19973;-56
2024/04/02 13:20:31;;;;;;;;;;;19.80;38.50;;;;;;8355283;28;20015;-55
2024/04/02 13:24:31;;;;;;;;;;;19.70;39.60;;;;;;8355580;28;19916;-55
2024/04/02 13:28:34;;;;;;;;;;;19.60;39.80;;;;;;8355402;28;19956;-56
2024/04/02 13:32:35;;;;;;;;;;;19.60;39.30;;;;;;8355097;28;19917;-55
2024/04/02 13:36:36;;;;;;;;;;;19.70;39.00;;;;;;8355374;28;19924;-55
2024/04/02 13:40:39;;;;;;;;;;;19.70;38.70;;;;;;8356012;28;19996;-55
2024/04/02 13:44:39;;;;;;;;;;;19.80;38.50;;;;;;8354769;27;19967;-55
2024/04/02 13:48:40;;;;;;;;;;;19.80;38.30;;;;;;8355083;28;19913;-55
2024/04/02 13:52:41;;;;;;;;;;;19.80;38.20;;;;;;8354576;28;19920;-55
2024/04/02 13:56:43;;;;;;;;;;;19.80;38.10;;;;;;8354687;28;19913;-56
2024/04/02 14:00:44;;;;;;;;;;;19.80;38.10;;;;;;8354715;28;19917;-54
2024/04/02 14:04:45;;;;;;;;;;;19.90;38.00;;;;;;8354242;28;19917;-55
2024/04/02 14:08:45;;;;;;;;;;;19.80;38.70;;;;;;8354325;28;19957;-54
2024/04/02 14:12:46;;;;;;;;;;;19.60;39.80;;;;;;8358068;28;19913;-54
2024/04/02 14:16:47;;;;;;;;;;;19.50;39.70;;;;;;8359954;28;19917;-55
2024/04/02 14:20:53;;;;;;;;;;;19.60;39.20;;;;;;8359871;28;19924;-55
2024/04/02 14:24:54;;;;;;;;;;;19.70;38.90;;;;;;8359884;28;20377;-55
2024/04/02 14:28:54;;;;;;;;;;;19.70;38.70;;;;;;8359571;28;20285;-56
2024/04/02 14:32:55;;;;;;;;;;;19.80;38.50;;;;;;8359703;27;19913;-56
2024/04/02 14:36:56;;;;;;;;;;;19.80;38.40;;;;;;8359759;28;20444;-55
2024/04/02 14:41:00;;;;;;;;;;;19.80;38.30;;;;;;8359292;28;19977;-55
2024/04/02 14:45:01;;;;;;;;;;;19.80;38.20;;;;;;8359140;27;20274;-55
2024/04/02 14:49:01;;;;;;;;;;;19.80;38.20;;;;;;8359114;28;19912;-55
2024/04/02 14:53:02;;;;;;;;;;;19.80;38.00;;;;;;8359057;28;19919;-55
2024/04/02 14:57:03;;;;;;;;;;;19.70;38.80;;;;;;8359188;28;19913;-56
2024/04/02 15:01:06;;;;;;;;;;;19.60;39.70;;;;;;8358795;28;19944;-55
2024/04/02 15:05:08;;;;;;;;;;;19.50;39.60;;;;;;8358715;28;20389;-55
2024/04/02 15:09:09;;;;;;;;;;;19.60;39.10;;;;;;8358523;28;19913;-55
2024/04/02 15:13:10;;;;;;;;;;;19.70;39.20;;;;;;8358248;27;19917;-55
2024/04/02 15:17:11;;;;;;;;;;;19.70;38.90;;;;;;8358491;28;19934;-55
2024/04/02 15:21:12;;;;;;;;;;;19.70;38.50;;;;;;8358033;28;19932;-55
2024/04/02 15:25:12;;;;;;;;;;;19.70;38.60;;;;;;8357951;28;19948;-56
2024/04/02 15:29:13;;;;;;;;;;;19.70;38.70;;;;;;8358050;28;19965;-56
2024/04/02 15:33:14;;;;;;;;;;;19.60;38.50;;;;;;8358075;28;19913;-56
2024/04/02 15:37:15;;;;;;;;;;;19.60;38.40;;;;;;8357935;28;19913;-56
2024/04/02 15:41:15;;;;;;;;;;;19.60;38.20;;;;;;8358351;28;20255;-55
2024/04/02 15:45:16;;;;;;;;;;;19.50;38.70;;;;;;8357699;27;19962;-55
2024/04/02 15:49:17;;;;;;;;;;;19.30;39.20;;;;;;8339928;28;20507;-56
2024/04/02 15:53:17;;;;;;;;;;;19.30;38.90;;;;;;8357227;28;20220;-55
2024/04/02 15:57:18;;;;;;;;;;;19.50;38.70;;;;;;8357405;28;19912;-55
2024/04/02 16:01:20;;;;;;;;;;;19.60;38.20;;;;;;8357377;28;19956;-56
2024/04/02 16:05:22;;;;;;;;;;;19.60;37.90;;;;;;8356469;27;19981;-50
2024/04/02 16:09:22;;;;;;;;;;;19.70;37.80;;;;;;8424687;27;19925;-48
2024/04/02 16:13:23;;;;;;;;;;;19.80;38.10;;;;;;8350325;27;19916;-53
2024/04/02 16:17:27;;;;;;;;;;;19.90;38.60;;;;;;8343505;27;21900;-47
2024/04/02 16:21:27;;;;;;;;;;;20.00;38.80;;;;;;8327643;28;19928;-50
2024/04/02 16:25:29;;;;;;;;;;;20.00;39.00;;;;;;8354661;27;19915;-51
2024/04/02 16:29:29;;;;;;;;;;;20.10;38.60;;;;;;8317892;27;19948;-47
2024/04/02 16:33:30;;;;;;;;;;;20.00;38.90;;;;;;8312594;27;19979;-52
2024/04/02 16:37:31;;;;;;;;;;;19.90;38.60;;;;;;8313081;27;20386;-54
2024/04/02 16:41:32;;;;;;;;;;;19.80;38.40;;;;;;8314283;27;20301;-51
2024/04/02 16:45:34;;;;;;;;;;;19.70;37.30;;;;;;8314970;27;19921;-54
2024/04/02 16:49:34;;;;;;;;;;;19.70;36.70;;;;;;8310945;27;19924;-50
2024/04/02 16:53:35;;;;;;;;;;;19.80;36.90;;;;;;8351402;28;20425;-48
2024/04/02 16:57:35;;;;;;;;;;;19.80;36.20;;;;;;8356302;27;21471;-52
2024/04/02 17:01:36;;;;;;;;;;;19.80;36.00;;;;;;8346597;27;19921;-49
2024/04/02 17:05:36;;;;;;;;;;;20.00;37.10;;;;;;8387961;27;19912;-50
2024/04/02 17:09:37;;;;;;;;;;;20.10;36.30;;;;;;8407577;27;19928;-53
2024/04/02 17:17:56;;;;;;;;;;;20.20;37.00;;;;;;8394763;27;19915;-53
2024/04/02 17:21:57;;;;;;;;;;;20.20;38.00;;;;;;8349862;28;19913;-50
2024/04/02 17:25:57;;;;;;;;;;;20.10;38.20;;;;;;8342981;27;19913;-54
2024/04/02 17:29:58;;;;;;;;;;;20.10;38.20;;;;;;8391630;27;19969;-52
2024/04/02 17:33:59;;;;;;;;;;;20.20;38.00;;;;;;8474959;27;20376;-49
2024/04/02 17:38:00;;;;;;;;;;;20.20;38.00;;;;;;8381174;27;20300;-48
2024/04/02 17:42:01;;;;;;;;;;;20.20;38.20;;;;;;8451621;27;19943;-51
2024/04/02 17:46:04;;;;;;;;;;;20.30;38.40;;;;;;8343061;27;19917;-52
2024/04/02 17:50:04;;;;;;;;;;;20.30;38.60;;;;;;8353314;27;19924;-54
2024/04/02 17:54:05;;;;;;;;;;;20.40;39.40;;;;;;8351827;27;19912;-53
2024/04/02 17:58:06;;;;;;;;;;;20.40;41.20;;;;;;8362043;27;19965;-57
2024/04/02 18:02:06;;;;;;;;;;;20.40;40.50;;;;;;8362210;27;20028;-51
2024/04/02 18:06:07;;;;;;;;;;;20.50;40.30;;;;;;8357395;27;19977;-55
2024/04/02 18:10:08;;;;;;;;;;;20.40;41.10;;;;;;8341274;27;19921;-57
2024/04/02 18:14:08;;;;;;;;;;;20.30;40.90;;;;;;8370489;27;19918;-59
2024/04/02 18:18:10;;;;;;;;;;;20.40;40.80;;;;;;8423403;27;19944;-55
2024/04/02 18:22:10;;;;;;;;;;;20.50;40.50;;;;;;8308997;27;19918;-57
2024/04/02 18:26:12;;;;;;;;;;;20.50;40.70;;;;;;8314837;28;19917;-56
2024/04/02 18:30:12;;;;;;;;;;;20.60;40.10;;;;;;8310360;28;19974;-58
2024/04/02 18:34:15;;;;;;;;;;;20.50;40.30;;;;;;8298322;28;19914;-60
2024/04/02 18:38:18;;;;;;;;;;;20.60;40.30;;;;;;8326398;28;20221;-56
2024/04/02 18:42:19;;;;;;;;;;;20.60;40.20;;;;;;8303066;28;19998;-56
2024/04/02 18:46:23;;;;;;;;;;;20.60;40.20;;;;;;8328368;28;19948;-57
2024/04/02 18:50:24;;;;;;;;;;;20.60;40.10;;;;;;8328702;28;19924;-56
2024/04/02 18:54:26;;;;;;;;;;;20.60;40.20;;;;;;8325276;28;19917;-55
2024/04/02 18:58:27;;;;;;;;;;;20.50;41.20;;;;;;8301595;28;19921;-56
2024/04/02 19:02:29;;;;;;;;;;;20.50;41.40;;;;;;8298983;28;19913;-56
2024/04/02 19:06:32;;;;;;;;;;;20.50;41.00;;;;;;8295877;28;20011;-55
2024/04/02 19:10:33;;;;;;;;;;;20.60;40.70;;;;;;8304022;28;20335;-56
2024/04/02 19:14:33;;;;;;;;;;;20.70;40.50;;;;;;8307801;28;20298;-56
2024/04/02 19:18:34;;;;;;;;;;;20.70;40.60;;;;;;8313317;28;19924;-56
2024/04/02 19:22:38;;;;;;;;;;;20.70;40.50;;;;;;8338498;27;19913;-55
2024/04/02 19:26:38;;;;;;;;;;;20.60;40.10;;;;;;8352641;27;19924;-54
2024/04/02 19:30:39;;;;;;;;;;;20.60;40.10;;;;;;8352953;28;19917;-56
2024/04/02 19:34:40;;;;;;;;;;;20.60;40.10;;;;;;8350313;27;20669;-54
2024/04/02 19:38:40;;;;;;;;;;;20.60;40.20;;;;;;8358058;28;19917;-54
2024/04/02 19:42:41;;;;;;;;;;;20.60;40.60;;;;;;8357476;27;19948;-55
2024/04/02 19:46:41;;;;;;;;;;;20.40;42.00;;;;;;8325067;28;19919;-53
2024/04/02 19:50:49;;;;;;;;;;;20.30;42.10;;;;;;8340143;28;19913;-50
2024/04/02 19:54:49;;;;;;;;;;;20.40;41.40;;;;;;8355808;28;19980;-50
2024/04/02 19:58:50;;;;;;;;;;;20.40;41.00;;;;;;8357482;28;19916;-51
2024/04/02 20:02:51;;;;;;;;;;;20.50;40.90;;;;;;8357164;28;19909;-51
2024/04/02 20:06:52;;;;;;;;;;;20.50;40.80;;;;;;8356937;28;20007;-49
2024/04/02 20:10:53;;;;;;;;;;;20.60;40.70;;;;;;8354855;28;20007;-53
2024/04/02 20:14:54;;;;;;;;;;;20.60;40.70;;;;;;8355451;27;19920;-57
2024/04/02 20:18:55;;;;;;;;;;;20.70;42.30;;;;;;8338403;28;19986;-56
2024/04/02 20:22:55;;;;;;;;;;;20.80;40.50;;;;;;8321271;28;19996;-56
2024/04/02 20:26:56;;;;;;;;;;;20.80;40.40;;;;;;8325243;28;19925;-59
2024/04/02 20:30:57;;;;;;;;;;;20.50;40.30;;;;;;8320771;28;19975;-59
2024/04/02 20:34:58;;;;;;;;;;;20.20;41.10;;;;;;8320560;28;19976;-59
2024/04/02 20:38:59;;;;;;;;;;;20.20;41.10;;;;;;8320755;28;19917;-60
2024/04/02 20:43:00;;;;;;;;;;;20.40;40.40;;;;;;8343982;27;19928;-60
2024/04/02 20:47:00;;;;;;;;;;;20.50;40.10;;;;;;8353556;28;19916;-65
2024/04/02 20:51:05;;;;;;;;;;;20.50;39.90;;;;;;8353069;28;20254;-64
2024/04/02 20:55:05;;;;;;;;;;;20.60;39.80;;;;;;8353330;28;19909;-64
2024/04/02 20:59:06;;;;;;;;;;;20.60;39.60;;;;;;8353176;28;19969;-65
2024/04/02 21:03:06;;;;;;;;;;;20.60;39.60;;;;;;8353886;28;19909;-66
2024/04/02 21:07:10;;;;;;;;;;;20.70;39.50;;;;;;8352934;28;19913;-64
2024/04/02 21:11:10;;;;;;;;;;;20.70;39.60;;;;;;8352751;28;19921;-62
2024/04/02 21:15:11;;;;;;;;;;;20.70;39.50;;;;;;8437831;27;19922;-64
2024/04/02 21:19:12;;;;;;;;;;;20.60;40.30;;;;;;8434620;27;20015;-65
2024/04/02 21:23:12;;;;;;;;;;;20.50;41.10;;;;;;8425690;27;19942;-65
2024/04/02 21:27:13;;;;;;;;;;;20.50;41.00;;;;;;8441794;27;19952;-59
2024/04/02 21:31:13;;;;;;;;;;;20.60;40.20;;;;;;8350343;28;20445;-63
2024/04/02 21:35:14;;;;;;;;;;;20.60;39.90;;;;;;8375506;28;19919;-60
2024/04/02 21:39:15;;;;;;;;;;;20.60;40.00;;;;;;8352584;28;19920;-61
2024/04/02 21:43:16;;;;;;;;;;;20.70;39.80;;;;;;8359700;27;19956;-60
2024/04/02 21:47:16;;;;;;;;;;;20.70;39.70;;;;;;8382001;28;19913;-63
2024/04/02 21:51:17;;;;;;;;;;;20.60;39.80;;;;;;8352854;28;20401;-60
2024/04/02 21:55:17;;;;;;;;;;;20.60;40.10;;;;;;8353809;28;19913;-62
2024/04/02 21:59:18;;;;;;;;;;;20.60;40.30;;;;;;8354660;28;19912;-61
2024/04/02 22:03:20;;;;;;;;;;;20.60;40.20;;;;;;8355484;27;20393;-61
2024/04/02 22:07:20;;;;;;;;;;;20.50;41.10;;;;;;8354469;28;20281;-62
2024/04/02 22:11:21;;;;;;;;;;;20.30;41.80;;;;;;8355163;27;19917;-58
2024/04/02 22:15:22;;;;;;;;;;;20.30;41.80;;;;;;8354140;28;19909;-59
2024/04/02 22:19:23;;;;;;;;;;;20.40;41.50;;;;;;8353898;28;19925;-62
2024/04/02 22:23:23;;;;;;;;;;;20.40;40.90;;;;;;8326748;28;19918;-61
2024/04/02 22:27:24;;;;;;;;;;;20.40;40.50;;;;;;8320806;28;20286;-59
2024/04/02 22:31:24;;;;;;;;;;;20.30;40.10;;;;;;8321092;28;20062;-60
2024/04/02 22:35:26;;;;;;;;;;;20.20;39.90;;;;;;8326591;28;20374;-60
2024/04/02 22:39:27;;;;;;;;;;;20.20;39.70;;;;;;8326646;28;19917;-60
2024/04/02 22:43:27;;;;;;;;;;;20.20;39.60;;;;;;8343522;28;19940;-59
2024/04/02 22:47:28;;;;;;;;;;;20.10;39.50;;;;;;8359735;28;19920;-60
2024/04/02 22:51:28;;;;;;;;;;;20.10;39.40;;;;;;8359161;28;20330;-60
2024/04/02 22:55:29;;;;;;;;;;;20.10;40.50;;;;;;8358892;28;19945;-59
2024/04/02 22:59:29;;;;;;;;;;;19.90;41.40;;;;;;8358784;28;19917;-60
2024/04/02 23:03:30;;;;;;;;;;;19.80;41.00;;;;;;8358932;28;19965;-59
2024/04/02 23:07:30;;;;;;;;;;;19.80;40.50;;;;;;8358794;28;19932;-61
2024/04/02 23:11:31;;;;;;;;;;;19.90;40.20;;;;;;8358564;27;20011;-60
2024/04/02 23:15:32;;;;;;;;;;;20.00;40.00;;;;;;8358658;28;19913;-61
2024/04/02 23:19:32;;;;;;;;;;;19.90;39.80;;;;;;8358234;28;20274;-61
2024/04/02 23:23:33;;;;;;;;;;;20.00;39.70;;;;;;8340520;28;19912;-62
2024/04/02 23:27:33;;;;;;;;;;;20.00;39.60;;;;;;8358356;28;19913;-61